Time;durP1;ratioP1;P1;durP2;ratioP2;P2;SDS_P1;SDS_P2;PMS_P1;PMS_P2;Temp;Humidity;BMP_temperature;BMP_pressure;BME280_temperature;BME280_humidity;BME280_pressure;Samples;Min_cycle;Max_cycle;Signal;HPM_P1;HPM_P2
2021/12/12 00:01:26;;;;;;;110.15;57.97;;;3.50;99.90;;;;;;5084814;28;20039;-80
2021/12/12 00:04:04;;;;;;;112.82;63.22;;;3.60;99.90;;;;;;5082342;28;20040;-80
2021/12/12 00:06:33;;;;;;;115.47;62.35;;;3.60;99.90;;;;;;5079686;28;20029;-79
2021/12/12 00:09:08;;;;;;;107.25;61.67;;;3.60;99.90;;;;;;5082241;28;20090;-80
2021/12/12 00:11:36;;;;;;;109.95;62.88;;;3.60;99.90;;;;;;5079941;28;20036;-79
2021/12/12 00:14:09;;;;;;;108.82;65.18;;;3.60;99.90;;;;;;5083823;28;20060;-80
2021/12/12 00:16:35;;;;;;;108.97;61.05;;;3.60;99.90;;;;;;5083070;28;20088;-79
2021/12/12 00:19:01;;;;;;;104.88;59.28;;;3.60;99.90;;;;;;5081839;28;20036;-80
2021/12/12 00:21:29;;;;;;;113.15;60.33;;;3.70;99.90;;;;;;5072727;28;20037;-79
2021/12/12 00:23:55;;;;;;;109.70;58.28;;;3.70;99.90;;;;;;5072464;28;20513;-81
2021/12/12 00:26:21;;;;;;;112.10;59.47;;;3.60;99.90;;;;;;5066765;28;20052;-79
2021/12/12 00:28:47;;;;;;;112.50;61.17;;;3.70;99.90;;;;;;5088154;28;20036;-79
2021/12/12 00:31:16;;;;;;;109.00;60.92;;;3.60;99.90;;;;;;5088492;28;20040;-79
2021/12/12 00:33:47;;;;;;;100.43;56.65;;;3.60;99.90;;;;;;5071643;28;20037;-79
2021/12/12 00:36:16;;;;;;;104.28;55.47;;;3.60;99.90;;;;;;5068609;28;20055;-79
2021/12/12 00:38:44;;;;;;;102.78;59.13;;;3.70;99.90;;;;;;5088192;28;20025;-79
2021/12/12 00:41:12;;;;;;;101.47;55.17;;;3.70;99.90;;;;;;5071150;28;20094;-79
2021/12/12 00:43:47;;;;;;;103.13;57.63;;;3.70;99.90;;;;;;5066504;28;20033;-79
2021/12/12 00:46:14;;;;;;;99.20;55.42;;;3.60;99.90;;;;;;5054564;28;20051;-79
2021/12/12 00:48:42;;;;;;;99.53;53.92;;;3.70;99.90;;;;;;5087697;28;20041;-79
2021/12/12 00:51:12;;;;;;;92.00;54.95;;;3.70;99.90;;;;;;5087647;28;20036;-79
2021/12/12 00:53:39;;;;;;;98.13;53.42;;;3.70;99.90;;;;;;5087450;28;20506;-79
2021/12/12 00:56:06;;;;;;;98.68;55.03;;;3.70;99.90;;;;;;5054112;28;20044;-79
2021/12/12 00:58:31;;;;;;;103.47;57.72;;;3.70;99.90;;;;;;5070526;28;20108;-79
2021/12/12 01:01:03;;;;;;;99.35;55.42;;;3.70;99.90;;;;;;5070997;28;20063;-79
2021/12/12 01:03:38;;;;;;;93.43;54.72;;;3.60;99.90;;;;;;5070386;28;20045;-80
2021/12/12 01:06:06;;;;;;;99.93;55.38;;;3.70;99.90;;;;;;5087212;28;20040;-79
2021/12/12 01:08:33;;;;;;;92.60;55.35;;;3.70;99.90;;;;;;5087137;28;20493;-79
2021/12/12 01:11:22;;;;;;;92.22;53.47;;;3.70;99.90;;;;;;5068200;28;20044;-79
2021/12/12 01:13:49;;;;;;;96.35;51.55;;;3.70;99.90;;;;;;5070256;28;20093;-79
2021/12/12 01:16:22;;;;;;;94.60;52.28;;;3.70;99.90;;;;;;5066191;28;20044;-79
2021/12/12 01:18:59;;;;;;;95.43;52.15;;;3.70;99.90;;;;;;5067551;28;20392;-80
2021/12/12 01:21:34;;;;;;;87.30;48.78;;;3.70;99.90;;;;;;5054062;28;20217;-80
2021/12/12 01:24:07;;;;;;;89.75;49.35;;;3.70;99.90;;;;;;5087623;28;20146;-79
2021/12/12 01:26:34;;;;;;;86.40;49.63;;;3.70;99.90;;;;;;5070315;28;20393;-80
2021/12/12 01:29:01;;;;;;;79.68;45.22;;;3.70;99.90;;;;;;5086268;28;20386;-78
2021/12/12 01:31:32;;;;;;;87.57;46.92;;;3.80;99.90;;;;;;5053214;28;20033;-79
2021/12/12 01:34:10;;;;;;;85.70;48.22;;;3.70;99.90;;;;;;5049642;28;20036;-78
2021/12/12 01:36:53;;;;;;;83.57;46.45;;;3.70;99.90;;;;;;5085486;28;20035;-79
2021/12/12 01:39:22;;;;;;;82.93;46.03;;;3.70;99.90;;;;;;5087307;28;20068;-79
2021/12/12 01:41:58;;;;;;;79.53;46.45;;;3.80;99.90;;;;;;5071231;28;20085;-79
2021/12/12 01:44:56;;;;;;;87.18;47.50;;;3.80;99.90;;;;;;5073084;28;20362;-80
2021/12/12 01:47:45;;;;;;;75.35;44.92;;;3.80;99.90;;;;;;5058050;28;20058;-79
2021/12/12 01:50:21;;;;;;;91.63;48.13;;;3.80;99.90;;;;;;5073558;28;20505;-79
2021/12/12 01:52:47;;;;;;;;;;;3.80;99.90;;;;;;5073882;28;20055;-80
2021/12/12 01:55:23;;;;;;;;;;;3.80;99.90;;;;;;5074057;28;19916;-80
2021/12/12 01:57:51;;;;;;;72.20;41.17;;;3.80;99.90;;;;;;5071750;28;19920;-80
2021/12/12 02:00:43;;;;;;;77.68;41.10;;;3.80;99.90;;;;;;5074260;28;20067;-80
2021/12/12 02:03:12;;;;;;;78.60;41.45;;;3.90;99.90;;;;;;5073371;28;20052;-79
2021/12/12 02:05:39;;;;;;;73.38;41.38;;;3.90;99.90;;;;;;5087656;28;20503;-80
2021/12/12 02:08:12;;;;;;;80.28;43.75;;;3.90;99.90;;;;;;5091471;28;20039;-79
2021/12/12 02:10:42;;;;;;;72.15;40.90;;;3.90;99.90;;;;;;5072264;28;20052;-80
2021/12/12 02:13:11;;;;;;;72.20;41.30;;;3.90;99.90;;;;;;5077450;28;20123;-80
2021/12/12 02:15:38;;;;;;;73.05;42.30;;;3.90;99.90;;;;;;5074643;28;20119;-81
2021/12/12 02:18:10;;;;;;;78.57;42.70;;;3.90;99.90;;;;;;5059490;28;20435;-81
2021/12/12 02:20:52;;;;;;;77.18;45.28;;;3.90;99.90;;;;;;5090986;28;20040;-81
2021/12/12 02:23:29;;;;;;;75.93;43.80;;;4.00;99.90;;;;;;5095159;28;20086;-81
2021/12/12 02:36:59;;;;;;;79.18;42.55;;;4.00;99.90;;;;;;5072561;28;20048;-80
2021/12/12 02:39:25;;;;;;;67.57;40.92;;;4.00;99.90;;;;;;5069954;28;20052;-80
2021/12/12 02:41:56;;;;;;;67.13;35.30;;;4.00;99.90;;;;;;5070177;28;20456;-80
2021/12/12 02:44:27;;;;;;;64.68;38.50;;;4.00;99.90;;;;;;5052895;28;20090;-80
2021/12/12 02:46:57;;;;;;;68.20;40.63;;;4.00;99.90;;;;;;5068344;28;20041;-81
2021/12/12 02:49:36;;;;;;;75.32;42.00;;;4.00;99.90;;;;;;5069046;28;20071;-79
2021/12/12 02:52:04;;;;;;;70.63;39.95;;;4.00;99.90;;;;;;5067298;28;20097;-79
2021/12/12 02:54:30;;;;;;;65.57;37.05;;;4.00;99.90;;;;;;5064889;28;20047;-79
2021/12/12 02:56:56;;;;;;;67.10;40.72;;;4.00;99.90;;;;;;5048912;28;20408;-79
2021/12/12 02:59:24;;;;;;;72.38;40.83;;;4.00;99.90;;;;;;5069863;28;20484;-80
2021/12/12 03:02:06;;;;;;;73.47;38.22;;;4.00;99.90;;;;;;5052582;28;20115;-80
2021/12/12 03:04:32;;;;;;;69.82;36.28;;;4.00;99.90;;;;;;5067862;28;20043;-80
2021/12/12 03:06:59;;;;;;;56.80;32.30;;;4.10;99.90;;;;;;5069065;28;20052;-80
2021/12/12 03:09:36;;;;;;;75.40;41.85;;;4.10;99.90;;;;;;5069606;28;20107;-79
2021/12/12 03:12:13;;;;;;;68.75;36.08;;;4.10;99.90;;;;;;5071383;28;20496;-80
2021/12/12 03:14:38;;;;;;;58.13;33.85;;;4.10;99.90;;;;;;5088303;28;20093;-79
2021/12/12 03:17:09;;;;;;;58.90;33.70;;;4.10;99.90;;;;;;5072001;28;20131;-80
2021/12/12 03:19:36;;;;;;;60.05;33.85;;;4.20;99.90;;;;;;5070970;28;20029;-79
2021/12/12 03:22:05;;;;;;;57.03;33.72;;;4.10;99.90;;;;;;5069874;28;20115;-80
2021/12/12 03:24:31;;;;;;;55.35;31.38;;;4.10;99.90;;;;;;5087113;28;20037;-80
2021/12/12 03:27:00;;;;;;;53.95;31.73;;;4.20;99.90;;;;;;5070593;28;20047;-79
2021/12/12 03:29:27;;;;;;;49.58;30.30;;;4.20;99.90;;;;;;5071498;28;20029;-79
2021/12/12 03:32:05;;;;;;;51.42;31.92;;;4.20;99.90;;;;;;5088881;28;20115;-81
2021/12/12 03:34:34;;;;;;;52.03;29.25;;;4.20;99.90;;;;;;5067410;28;20040;-79
2021/12/12 03:37:02;;;;;;;50.65;30.40;;;4.30;99.90;;;;;;5069704;28;20036;-79
2021/12/12 03:39:31;;;;;;;52.70;29.23;;;4.20;99.90;;;;;;5086091;28;20441;-80
2021/12/12 03:42:00;;;;;;;53.22;28.80;;;4.30;99.90;;;;;;5087364;28;20060;-81
2021/12/12 03:44:30;;;;;;;46.80;28.38;;;4.30;99.90;;;;;;5054715;28;20122;-80
2021/12/12 03:47:00;;;;;;;57.45;30.02;;;4.30;99.90;;;;;;5084143;28;20044;-79
2021/12/12 03:49:27;;;;;;;51.20;29.63;;;4.40;99.90;;;;;;5068620;28;20032;-79
2021/12/12 03:51:53;;;;;;;47.33;27.77;;;4.40;99.90;;;;;;5069718;28;20066;-80
2021/12/12 03:54:19;;;;;;;50.95;28.92;;;4.40;99.90;;;;;;5070291;28;20036;-79
2021/12/12 03:56:45;;;;;;;51.35;28.58;;;4.40;99.90;;;;;;5069609;28;20086;-79
2021/12/12 03:59:12;;;;;;;52.42;26.92;;;4.40;99.90;;;;;;5083353;28;20656;-79
2021/12/12 04:01:44;;;;;;;40.78;23.92;;;4.50;99.90;;;;;;5087677;28;20043;-79
2021/12/12 04:04:20;;;;;;;44.55;26.67;;;4.50;99.90;;;;;;5084354;28;20415;-81
2021/12/12 04:06:47;;;;;;;48.17;25.33;;;4.50;99.90;;;;;;5083213;28;20066;-79
2021/12/12 04:09:15;;;;;;;36.83;24.35;;;4.60;99.90;;;;;;5062169;28;20036;-78
2021/12/12 04:11:46;;;;;;;39.33;24.77;;;4.50;99.90;;;;;;5087235;28;20051;-81
2021/12/12 04:14:12;;;;;;;43.05;24.00;;;4.60;99.90;;;;;;5069254;28;20029;-79
2021/12/12 04:16:45;;;;;;;42.33;25.45;;;4.60;99.90;;;;;;5069362;28;20047;-79
2021/12/12 04:19:11;;;;;;;48.97;30.10;;;4.50;99.90;;;;;;5053050;28;20028;-80
2021/12/12 04:21:39;;;;;;;40.83;27.05;;;4.50;99.90;;;;;;5066513;28;20039;-80
2021/12/12 04:24:05;;;;;;;42.53;27.65;;;4.50;99.90;;;;;;5087082;28;20088;-79
2021/12/12 04:26:35;;;;;;;53.85;28.58;;;4.50;99.90;;;;;;5069099;28;20392;-79
2021/12/12 04:29:09;;;;;;;48.63;28.05;;;4.50;99.90;;;;;;5066694;28;20059;-80
2021/12/12 04:31:38;;;;;;;45.65;26.52;;;4.50;99.90;;;;;;5070887;28;20041;-79
2021/12/12 04:34:05;;;;;;;42.88;26.52;;;4.50;99.90;;;;;;5085121;28;20470;-80
2021/12/12 04:36:35;;;;;;;44.95;24.98;;;4.50;99.90;;;;;;5065509;28;20076;-80
2021/12/12 04:39:12;;;;;;;40.70;24.58;;;4.50;99.90;;;;;;5084695;28;20067;-80
2021/12/12 04:41:39;;;;;;;51.17;27.83;;;4.50;99.90;;;;;;5084398;28;20035;-79
2021/12/12 04:44:06;;;;;;;39.10;24.33;;;4.60;99.90;;;;;;5068015;28;20043;-79
2021/12/12 04:49:57;;;;;;;44.58;26.25;;;4.60;99.90;;;;;;5068635;28;20068;-79
2021/12/12 04:52:45;;;;;;;44.42;23.17;;;4.60;99.90;;;;;;5069462;28;20033;-81
2021/12/12 04:55:19;;;;;;;43.35;25.42;;;4.60;99.90;;;;;;5067818;28;20485;-79
2021/12/12 04:57:52;;;;;;;37.28;22.52;;;4.70;99.90;;;;;;5070416;28;20577;-79
2021/12/12 05:00:23;;;;;;;42.28;22.52;;;4.60;99.90;;;;;;5070436;28;20036;-79
2021/12/12 05:03:00;;;;;;;38.78;23.50;;;4.60;99.90;;;;;;5067893;28;20041;-79
2021/12/12 05:05:39;;;;;;;36.25;21.05;;;4.70;99.90;;;;;;5069781;28;20044;-80
2021/12/12 05:08:13;;;;;;;40.53;23.48;;;4.70;99.90;;;;;;5066359;28;20505;-79
2021/12/12 05:11:02;;;;;;;32.45;21.38;;;4.70;99.90;;;;;;5083099;28;20111;-80
2021/12/12 05:13:37;;;;;;;31.70;20.35;;;4.70;99.90;;;;;;5069529;28;20037;-82
2021/12/12 05:16:13;;;;;;;29.48;17.88;;;4.80;99.90;;;;;;5066763;28;20041;-79
2021/12/12 05:18:50;;;;;;;27.77;18.65;;;4.80;99.90;;;;;;5068814;28;20111;-80
2021/12/12 05:21:25;;;;;;;32.95;20.05;;;4.80;99.90;;;;;;5067061;28;20493;-80
2021/12/12 05:23:55;;;;;;;26.40;17.48;;;4.80;99.90;;;;;;5083508;28;21134;-80
2021/12/12 05:26:25;;;;;;;22.67;16.55;;;4.70;99.90;;;;;;5048781;28;20071;-79
2021/12/12 05:29:18;;;;;;;23.42;15.95;;;4.80;99.90;;;;;;5085629;28;20032;-79
2021/12/12 05:31:49;;;;;;;24.58;16.00;;;4.80;99.90;;;;;;5084964;28;20567;-79
2021/12/12 05:34:17;;;;;;;21.65;14.52;;;4.80;99.90;;;;;;5066427;28;20461;-79
2021/12/12 05:36:45;;;;;;;25.95;14.48;;;4.80;99.90;;;;;;5084915;28;20054;-80
2021/12/12 05:39:11;;;;;;;23.00;15.05;;;4.90;99.90;;;;;;5067897;28;20086;-80
2021/12/12 05:41:37;;;;;;;19.30;13.10;;;4.90;99.90;;;;;;5065642;28;20435;-80
2021/12/12 05:44:05;;;;;;;26.10;15.68;;;4.90;99.90;;;;;;5066173;28;20033;-79
2021/12/12 05:46:30;;;;;;;22.42;14.98;;;4.90;99.90;;;;;;5064907;28;20447;-80
2021/12/12 05:48:59;;;;;;;20.42;14.68;;;4.90;99.90;;;;;;5064907;28;20036;-80
2021/12/12 05:51:25;;;;;;;16.75;10.85;;;4.90;99.90;;;;;;5069604;28;20112;-80
2021/12/12 05:53:55;;;;;;;19.83;14.45;;;4.90;99.90;;;;;;5083564;28;20047;-80
2021/12/12 05:56:25;;;;;;;20.73;14.05;;;4.90;99.90;;;;;;5069098;28;20040;-80
2021/12/12 05:58:52;;;;;;;20.70;13.63;;;4.90;99.90;;;;;;5063968;28;20097;-80
2021/12/12 06:01:19;;;;;;;20.88;15.73;;;4.90;99.90;;;;;;5066904;28;20036;-79
2021/12/12 06:03:47;;;;;;;26.98;17.05;;;4.90;99.90;;;;;;5069670;28;20040;-79
2021/12/12 06:06:17;;;;;;;26.80;15.43;;;5.00;99.90;;;;;;5085283;28;20546;-80
2021/12/12 06:08:45;;;;;;;24.92;16.50;;;4.90;99.90;;;;;;5082195;28;20040;-80
2021/12/12 06:11:12;;;;;;;24.35;15.65;;;5.00;99.90;;;;;;5050593;28;20043;-79
2021/12/12 06:13:39;;;;;;;30.17;17.65;;;5.00;99.90;;;;;;5084906;28;20032;-79
2021/12/12 06:16:06;;;;;;;28.95;15.00;;;5.00;99.90;;;;;;5080023;28;20405;-79
2021/12/12 06:18:33;;;;;;;23.42;16.38;;;5.00;99.90;;;;;;5064876;28;20043;-81
2021/12/12 06:20:59;;;;;;;22.45;14.48;;;5.00;99.90;;;;;;5086468;28;20072;-80
2021/12/12 06:23:26;;;;;;;22.00;14.93;;;5.00;99.90;;;;;;5059667;28;20486;-79
2021/12/12 06:25:52;;;;;;;24.85;15.73;;;5.00;99.90;;;;;;5066856;28;20067;-80
2021/12/12 06:28:25;;;;;;;26.40;17.88;;;5.10;99.90;;;;;;5076042;28;20120;-81
2021/12/12 06:30:51;;;;;;;26.45;17.27;;;5.00;99.90;;;;;;5057262;28;20040;-79
2021/12/12 06:33:17;;;;;;;27.17;16.40;;;5.10;99.90;;;;;;5054415;28;20119;-81
2021/12/12 06:35:43;;;;;;;27.00;17.20;;;5.10;99.90;;;;;;5064531;28;20614;-81
2021/12/12 06:38:11;;;;;;;22.70;15.02;;;5.10;99.90;;;;;;5070414;28;20063;-80
2021/12/12 06:40:38;;;;;;;21.95;14.70;;;5.10;99.90;;;;;;5054027;28;20507;-80
2021/12/12 06:43:07;;;;;;;21.52;13.45;;;5.10;99.90;;;;;;5086471;28;20158;-80
2021/12/12 06:45:34;;;;;;;22.38;15.48;;;5.10;99.90;;;;;;5073709;28;20081;-80
2021/12/12 06:48:02;;;;;;;19.20;14.93;;;5.20;99.90;;;;;;5069909;28;20044;-80
2021/12/12 06:50:28;;;;;;;23.70;14.70;;;5.20;99.90;;;;;;5073558;28;20068;-80
2021/12/12 06:52:56;;;;;;;21.35;14.50;;;5.20;99.90;;;;;;5085495;28;20508;-80
2021/12/12 06:55:22;;;;;;;21.40;13.85;;;5.20;99.90;;;;;;5072363;28;20083;-80
2021/12/12 06:57:48;;;;;;;18.58;14.02;;;5.20;99.90;;;;;;5073602;28;20050;-81
2021/12/12 07:00:19;;;;;;;21.45;13.65;;;5.30;99.90;;;;;;5073906;28;20071;-79
2021/12/12 07:02:46;;;;;;;21.90;15.00;;;5.30;99.90;;;;;;5066208;28;20037;-81
2021/12/12 07:05:16;;;;;;;20.77;14.50;;;5.30;99.90;;;;;;5068902;28;20068;-80
2021/12/12 07:07:43;;;;;;;18.67;12.43;;;5.40;99.90;;;;;;5073215;28;20167;-81
2021/12/12 07:10:11;;;;;;;26.08;15.73;;;5.40;99.90;;;;;;5073825;28;20047;-80
2021/12/12 07:12:39;;;;;;;22.05;14.55;;;5.40;99.90;;;;;;5073033;28;20036;-80
2021/12/12 07:15:09;;;;;;;23.52;13.40;;;5.40;99.90;;;;;;5073711;28;20489;-81
2021/12/12 07:17:35;;;;;;;22.85;14.32;;;5.50;99.90;;;;;;5072624;28;20556;-80
2021/12/12 07:20:04;;;;;;;22.17;15.15;;;5.50;99.90;;;;;;5072289;28;20143;-80
2021/12/12 07:22:30;;;;;;;19.15;12.50;;;5.50;99.90;;;;;;5064864;28;20488;-80
2021/12/12 07:25:00;;;;;;;21.83;13.32;;;5.50;99.90;;;;;;5065306;28;20119;-81
2021/12/12 07:27:25;;;;;;;17.63;13.23;;;5.50;99.90;;;;;;5048510;28;20150;-80
2021/12/12 07:29:51;;;;;;;18.02;10.88;;;5.50;99.90;;;;;;5052291;28;20131;-80
2021/12/12 07:32:17;;;;;;;17.15;11.38;;;5.60;99.90;;;;;;5057580;28;20044;-81
2021/12/12 07:34:43;;;;;;;19.92;13.82;;;5.60;99.90;;;;;;5072267;28;20041;-79
2021/12/12 07:37:09;;;;;;;23.00;14.23;;;5.60;99.90;;;;;;5073942;28;20055;-80
2021/12/12 07:39:39;;;;;;;20.77;12.63;;;5.60;99.90;;;;;;5073864;28;20053;-80
2021/12/12 07:42:05;;;;;;;17.75;11.63;;;5.70;99.90;;;;;;5078714;28;20044;-81
2021/12/12 07:44:34;;;;;;;18.63;12.23;;;5.70;99.90;;;;;;5068939;28;20060;-80
2021/12/12 07:47:00;;;;;;;17.63;11.60;;;5.70;99.90;;;;;;5055363;28;20123;-81
2021/12/12 07:49:43;;;;;;;19.63;13.75;;;5.70;99.90;;;;;;5065022;28;20069;-79
2021/12/12 07:52:13;;;;;;;16.80;11.18;;;5.70;99.90;;;;;;5082185;28;20060;-81
2021/12/12 07:54:39;;;;;;;19.45;12.65;;;5.70;99.90;;;;;;5089936;28;20127;-82
2021/12/12 07:57:06;;;;;;;18.77;12.13;;;5.70;99.90;;;;;;5072100;28;20567;-80
2021/12/12 07:59:33;;;;;;;20.95;13.00;;;5.80;99.90;;;;;;5069123;28;20485;-80
2021/12/12 08:02:02;;;;;;;21.05;13.13;;;5.80;99.90;;;;;;5072515;28;20040;-80
2021/12/12 08:04:30;;;;;;;23.90;15.20;;;5.80;99.90;;;;;;5073507;28;20036;-79
2021/12/12 08:06:57;;;;;;;23.27;13.43;;;5.80;99.90;;;;;;5070709;28;20041;-80
2021/12/12 08:09:23;;;;;;;22.63;14.43;;;5.80;99.90;;;;;;5090078;28;20036;-80
2021/12/12 08:11:51;;;;;;;26.17;14.88;;;5.90;99.90;;;;;;5073203;28;20025;-81
2021/12/12 08:14:24;;;;;;;23.63;14.38;;;5.90;99.90;;;;;;5072576;28;20032;-81
2021/12/12 08:16:51;;;;;;;21.23;14.30;;;5.90;99.90;;;;;;5072497;28;20074;-79
2021/12/12 08:19:20;;;;;;;24.70;15.70;;;5.90;99.90;;;;;;5084508;28;20181;-80
2021/12/12 08:21:47;;;;;;;20.88;13.52;;;6.00;99.90;;;;;;5088814;28;20033;-82
2021/12/12 08:24:14;;;;;;;22.58;13.63;;;6.00;99.90;;;;;;5071233;28;20109;-81
2021/12/12 08:26:42;;;;;;;26.17;14.10;;;6.00;99.90;;;;;;5083140;28;20431;-81
2021/12/12 08:29:10;;;;;;;20.52;13.50;;;6.00;99.90;;;;;;5051855;28;20039;-82
2021/12/12 08:31:37;;;;;;;21.08;14.52;;;6.00;99.90;;;;;;5068318;28;20029;-80
2021/12/12 08:34:04;;;;;;;23.33;14.32;;;6.00;99.90;;;;;;5070997;28;20384;-81
2021/12/12 08:36:31;;;;;;;22.33;13.65;;;6.00;99.90;;;;;;5066754;28;20556;-81
2021/12/12 08:38:57;;;;;;;24.30;14.23;;;6.10;99.90;;;;;;5077436;28;20506;-80
2021/12/12 08:41:23;;;;;;;19.50;13.10;;;6.10;99.90;;;;;;5067947;28;20091;-81
2021/12/12 08:43:49;;;;;;;20.15;13.13;;;6.10;99.90;;;;;;5072109;28;20534;-80
2021/12/12 08:46:16;;;;;;;20.20;12.82;;;6.10;99.90;;;;;;5072729;28;20029;-82
2021/12/12 08:48:48;;;;;;;19.70;12.50;;;6.10;99.90;;;;;;5072938;28;20029;-80
2021/12/12 08:51:35;;;;;;;18.40;12.52;;;6.20;99.90;;;;;;5063481;28;20033;-80
2021/12/12 08:54:13;;;;;;;22.90;14.30;;;6.20;99.90;;;;;;5061326;28;20098;-81
2021/12/12 08:56:44;;;;;;;22.08;12.10;;;6.20;99.90;;;;;;5082132;28;20033;-81
2021/12/12 08:59:37;;;;;;;18.83;12.65;;;6.20;99.90;;;;;;5063363;28;20040;-81
2021/12/12 09:02:07;;;;;;;20.58;14.50;;;6.20;99.90;;;;;;5068023;28;20440;-79
2021/12/12 09:04:39;;;;;;;21.95;14.60;;;6.20;99.90;;;;;;5072278;28;20504;-81
2021/12/12 09:07:06;;;;;;;20.10;14.40;;;6.20;99.90;;;;;;5055380;28;20508;-80
2021/12/12 09:09:42;;;;;;;24.67;14.40;;;6.30;99.90;;;;;;5063224;28;20174;-80
2021/12/12 09:12:30;;;;;;;24.95;15.48;;;6.30;99.90;;;;;;5071693;28;20097;-80
2021/12/12 09:15:22;;;;;;;25.20;15.40;;;6.40;99.90;;;;;;5071870;28;20052;-81
2021/12/12 09:17:53;;;;;;;24.08;14.65;;;6.30;99.90;;;;;;5061279;28;20072;-81
2021/12/12 09:20:33;;;;;;;24.98;15.15;;;6.40;99.90;;;;;;5062634;28;20079;-81
2021/12/12 09:23:35;;;;;;;23.38;15.60;;;6.40;99.90;;;;;;5042226;28;20033;-81
2021/12/12 09:26:10;;;;;;;22.70;14.80;;;6.40;99.90;;;;;;5030635;28;20151;-80
2021/12/12 09:28:53;;;;;;;26.73;15.93;;;6.50;99.90;;;;;;5047620;28;20086;-80
2021/12/12 09:31:38;;;;;;;28.73;15.88;;;6.50;99.90;;;;;;5071614;28;20037;-81
2021/12/12 09:34:10;;;;;;;24.92;15.27;;;6.50;99.90;;;;;;5067335;28;20482;-81
2021/12/12 09:37:07;;;;;;;26.40;16.02;;;6.60;99.90;;;;;;5071742;28;20048;-81
2021/12/12 09:39:38;;;;;;;26.60;17.13;;;6.60;99.90;;;;;;5071804;28;20216;-81
2021/12/12 09:42:15;;;;;;;27.30;15.82;;;6.60;99.90;;;;;;5071574;28;20045;-81
2021/12/12 09:44:50;;;;;;;24.83;14.82;;;6.70;99.90;;;;;;5054910;28;20458;-81
2021/12/12 09:53:55;;;;;;;29.27;17.27;;;6.70;99.90;;;;;;5072270;28;20045;-81
2021/12/12 09:56:40;;;;;;;31.15;16.77;;;6.80;99.90;;;;;;5060005;28;20049;-82
2021/12/12 09:59:15;;;;;;;32.65;18.38;;;6.80;99.90;;;;;;5048648;28;20075;-81
2021/12/12 10:01:47;;;;;;;31.85;19.02;;;6.80;99.90;;;;;;5071378;28;20056;-80
2021/12/12 10:04:21;;;;;;;30.77;17.95;;;6.90;99.90;;;;;;5057307;28;20542;-80
2021/12/12 10:06:52;;;;;;;36.00;19.52;;;6.90;99.90;;;;;;5047439;28;20037;-79
2021/12/12 10:09:47;;;;;;;35.47;18.95;;;7.00;99.90;;;;;;5060339;28;20041;-82
2021/12/12 10:12:19;;;;;;;38.45;21.27;;;7.00;99.90;;;;;;5053024;28;20076;-81
2021/12/12 10:14:51;;;;;;;36.42;20.35;;;7.00;99.90;;;;;;5075289;28;20040;-81
2021/12/12 10:17:28;;;;;;;34.10;20.40;;;7.10;99.90;;;;;;5074194;28;20044;-81
2021/12/12 10:19:59;;;;;;;47.60;24.67;;;7.10;99.90;;;;;;5054199;28;20045;-81
2021/12/12 10:22:47;;;;;;;42.40;23.00;;;7.10;99.90;;;;;;5060644;28;20049;-83
2021/12/12 10:25:21;;;;;;;43.40;22.92;;;7.20;99.90;;;;;;5055911;28;20072;-82
2021/12/12 10:28:00;;;;;;;40.10;22.92;;;7.20;99.90;;;;;;5072129;28;20028;-83
2021/12/12 10:30:38;;;;;;;39.28;22.63;;;7.20;99.90;;;;;;5070470;28;20508;-82
2021/12/12 10:33:14;;;;;;;40.15;22.55;;;7.30;99.90;;;;;;5057919;28;20051;-81
2021/12/12 10:35:40;;;;;;;42.63;23.20;;;7.30;99.90;;;;;;5074138;28;20115;-83
2021/12/12 10:38:17;;;;;;;39.83;21.58;;;7.40;99.90;;;;;;5039021;28;20099;-82
2021/12/12 10:40:52;;;;;;;40.80;22.33;;;7.40;99.90;;;;;;5037457;28;20079;-81
2021/12/12 10:43:25;;;;;;;37.33;19.60;;;7.50;99.90;;;;;;5043942;28;20040;-82
2021/12/12 10:45:58;;;;;;;37.92;22.10;;;7.50;99.90;;;;;;5063175;28;20045;-81
2021/12/12 10:48:30;;;;;;;37.83;19.83;;;7.60;99.90;;;;;;5068729;28;20029;-81
2021/12/12 10:51:16;;;;;;;33.47;19.77;;;7.60;99.90;;;;;;5083380;28;20036;-81
2021/12/12 10:54:01;;;;;;;;;;;7.70;99.90;;;;;;5064085;28;20037;-82
2021/12/12 10:56:38;;;;;;;35.53;19.13;;;7.70;99.90;;;;;;5050604;28;19917;-81
2021/12/12 10:59:29;;;;;;;39.88;20.70;;;7.80;99.90;;;;;;5055023;28;20501;-81
2021/12/12 11:02:03;;;;;;;39.33;20.17;;;7.80;99.90;;;;;;5054723;28;20048;-81
2021/12/12 11:04:29;;;;;;;39.65;19.70;;;7.90;99.90;;;;;;5069254;28;20119;-81
2021/12/12 11:07:16;;;;;;;34.83;19.65;;;7.90;99.90;;;;;;5059232;28;20094;-81
2021/12/12 11:09:46;;;;;;;37.10;18.38;;;7.90;99.90;;;;;;5068479;28;20032;-81
2021/12/12 11:12:23;;;;;;;36.08;19.40;;;8.00;99.90;;;;;;5074089;28;20063;-80
2021/12/12 11:15:19;;;;;;;32.35;19.38;;;8.00;99.90;;;;;;5060422;28;20045;-81
2021/12/12 11:18:08;;;;;;;33.58;18.80;;;8.00;99.90;;;;;;5075609;28;20032;-83
2021/12/12 11:20:50;;;;;;;32.00;19.10;;;8.10;99.90;;;;;;5058848;28;20062;-81
2021/12/12 11:23:32;;;;;;;36.03;19.13;;;8.10;99.90;;;;;;5067341;28;20040;-83
2021/12/12 11:26:07;;;;;;;32.50;18.50;;;8.10;99.90;;;;;;5087072;28;20047;-82
2021/12/12 11:28:46;;;;;;;68.23;45.37;;;8.10;99.90;;;;;;5054881;28;20499;-83
2021/12/12 11:31:31;;;;;;;28.58;17.67;;;8.10;99.90;;;;;;5064463;28;20041;-82
2021/12/12 11:33:57;;;;;;;29.05;17.15;;;8.20;99.90;;;;;;5089274;28;20401;-82
2021/12/12 11:36:27;;;;;;;35.60;17.05;;;8.20;99.90;;;;;;5075067;28;20036;-82
2021/12/12 11:39:20;;;;;;;30.02;17.25;;;8.30;99.90;;;;;;5066727;28;20044;-82
2021/12/12 11:42:03;;;;;;;27.70;15.50;;;8.30;99.90;;;;;;5074589;28;20397;-83
2021/12/12 11:44:46;;;;;;;30.50;17.70;;;8.40;99.90;;;;;;5055864;28;20044;-82
2021/12/12 11:47:49;;;;;;;24.50;15.82;;;8.50;99.90;;;;;;5065812;28;20039;-82
2021/12/12 11:50:28;;;;;;;26.42;13.70;;;8.50;99.90;;;;;;5060038;28;20060;-80
2021/12/12 11:53:11;;;;;;;22.58;14.75;;;8.60;99.90;;;;;;5047707;28;20040;-81
2021/12/12 11:55:42;;;;;;;24.27;13.70;;;8.50;99.90;;;;;;5058542;28;20045;-79
2021/12/12 11:58:34;;;;;;;24.42;14.65;;;8.50;99.90;;;;;;5070608;28;20052;-82
2021/12/12 12:01:26;;;;;;;24.52;14.70;;;8.60;99.90;;;;;;5089344;28;20074;-81
2021/12/12 12:04:20;;;;;;;24.77;15.13;;;8.60;99.90;;;;;;5070972;28;20028;-81
2021/12/12 12:07:08;;;;;;;26.35;15.35;;;8.50;99.90;;;;;;5070575;28;20439;-81
2021/12/12 12:09:56;;;;;;;24.52;15.20;;;8.60;99.90;;;;;;5049939;28;20083;-81
2021/12/12 12:12:36;;;;;;;21.48;12.95;;;8.60;99.90;;;;;;5041922;28;20063;-81
2021/12/12 12:15:29;;;;;;;24.50;15.02;;;8.60;99.90;;;;;;5055206;28;20040;-81
2021/12/12 12:18:12;;;;;;;28.05;15.10;;;8.70;99.90;;;;;;5057123;28;20050;-82
2021/12/12 12:21:08;;;;;;;31.38;15.90;;;8.70;99.90;;;;;;5084566;28;20040;-81
2021/12/12 12:24:10;;;;;;;26.30;16.13;;;8.70;99.90;;;;;;5065978;28;20561;-80
2021/12/12 12:27:04;;;;;;;26.05;14.27;;;8.80;99.90;;;;;;5071357;28;20384;-80
2021/12/12 12:29:33;;;;;;;29.20;15.18;;;8.80;99.90;;;;;;5068317;28;20041;-81
2021/12/12 12:32:07;;;;;;;27.00;16.33;;;8.90;99.90;;;;;;5070439;28;20036;-81
2021/12/12 12:35:20;;;;;;;31.63;17.30;;;8.90;99.90;;;;;;5073221;28;20037;-82
2021/12/12 12:38:07;;;;;;;25.02;15.30;;;9.00;99.90;;;;;;5071810;28;20028;-81
2021/12/12 12:41:10;;;;;;;22.48;13.90;;;9.00;99.90;;;;;;5058920;28;20037;-83
2021/12/12 12:43:58;;;;;;;27.85;14.77;;;9.10;99.90;;;;;;5043410;28;20032;-81
2021/12/12 12:47:01;;;;;;;25.83;14.82;;;9.10;99.90;;;;;;5067359;28;20378;-83
2021/12/12 12:50:14;;;;;;;27.60;15.90;;;9.10;99.90;;;;;;5057896;28;20062;-81
2021/12/12 12:53:05;;;;;;;26.10;14.32;;;9.10;99.90;;;;;;5074052;28;20047;-81
2021/12/12 12:55:33;;;;;;;23.13;14.32;;;9.10;99.90;;;;;;5084221;28;20072;-82
2021/12/12 12:58:25;;;;;;;27.17;14.80;;;9.10;99.90;;;;;;5073410;28;20101;-81
2021/12/12 13:01:08;;;;;;;28.33;16.27;;;9.20;99.90;;;;;;5033729;28;20048;-81
2021/12/12 13:03:47;;;;;;;29.30;17.17;;;9.20;99.90;;;;;;5057992;28;20546;-84
2021/12/12 13:06:54;;;;;;;27.55;16.48;;;9.20;99.90;;;;;;5072737;28;20413;-82
2021/12/12 13:09:39;;;;;;;33.55;18.55;;;9.20;99.90;;;;;;5050803;28;20041;-82
2021/12/12 13:12:33;;;;;;;31.88;17.83;;;9.30;99.90;;;;;;5076458;28;20040;-81
2021/12/12 13:15:43;;;;;;;28.83;18.05;;;9.20;99.90;;;;;;5087557;28;20094;-81
2021/12/12 13:18:20;;;;;;;26.02;16.67;;;9.20;99.90;;;;;;5077653;28;20066;-84
2021/12/12 13:21:23;;;;;;;25.95;16.60;;;9.20;99.90;;;;;;5058799;28;20046;-80
2021/12/12 13:24:12;;;;;;;33.00;19.08;;;9.20;99.90;;;;;;5075679;28;20166;-81
2021/12/12 13:27:10;;;;;;;30.00;17.92;;;9.30;99.90;;;;;;5053045;28;20044;-81
2021/12/12 13:30:00;;;;;;;26.20;15.48;;;9.30;99.90;;;;;;5045171;28;20056;-81
2021/12/12 13:32:36;;;;;;;30.85;17.55;;;9.30;99.90;;;;;;5057889;28;20500;-81
2021/12/12 13:35:23;;;;;;;;;;;9.40;99.90;;;;;;5074143;28;20040;-81